CMA CGM J. Adams — MAZS6 — position and weather

sailwx.info

Track history (hours):
 
Tides and Currents Weather Stations Pressure Air Temp Water Temp Dewpoint Dewpoint Depression Visibility Wind Speed Wind Dir Waves Ship Positions

CMA CGM J. Adams

Last reported at 2018-Feb-19 03:56 UTC. Time now 2018-Feb-19 04:19 UTC.
Position N 36°53' W 076°21'.

Length 366 m; draft 12.7 m.

Type: Ship (hazmat cat D). MMSI: 232007935.

Date/timePositionNaut miles runAvg speedWind from/ knotsBaromVisibWave heightAir tempDewpointWater temp
2018-Feb-19 03:56N 36°53' W 076°21'0 0.0
2018-Feb-19 03:26N 36°53' W 076°21'0 0.0
2018-Feb-19 02:56N 36°53' W 076°21'0 0.0
2018-Feb-19 02:29N 36°53' W 076°21'0 0.0
2018-Feb-19 01:59N 36°53' W 076°21'0 0.0
2018-Feb-19 01:29N 36°53' W 076°21'0 0.0
2018-Feb-19 00:59N 36°53' W 076°21'0 0.0
2018-Feb-19 00:29N 36°53' W 076°21'0 0.0
2018-Feb-18 23:59N 36°53' W 076°21'0 0.5
2018-Feb-18 23:30N 36°53' W 076°21'2 4.5
2018-Feb-18 23:01N 36°55' W 076°20'4 8.1
2018-Feb-18 22:31N 36°59' W 076°20'611.4
2018-Feb-18 22:00N 36°60' W 076°12'715.0
2018-Feb-18 21:30N 36°58' W 076°04'611.1
2018-Feb-18 21:00N 36°56' W 075°57'4 8.5
2018-Feb-18 20:30N 36°53' W 075°53'4 9.0
2018-Feb-18 20:00N 36°51' W 075°48'4 7.9
2018-Feb-18 19:30N 36°49' W 075°44'3 0.1
2018-Feb-16 19:40N 36°50' W 075°40'  
2018-Feb-13 19:15N 36°50' W 075°41'3 7.7
2018-Feb-13 18:54N 36°49' W 075°39'2714.0
2018-Feb-13 17:00N 36°54' W 075°06'38 9.5 050 / 131039.010.8 6.0 1.5 9.0
2018-Feb-13 13:00N 37°12' W 074°24'4912.2 010 / 201038.027.0 4.0 4.011.0
2018-Feb-13 09:00N 38°00' W 074°12'4912.2 030 / 221037.010.8 3.0 0.6 7.0
2018-Feb-13 05:00N 38°48' W 074°00'4812.1 360 / 61036.010.8 3.0 0.6 4.0
2018-Feb-13 01:01N 39°36' W 073°53'4128.2
2018-Feb-13 01:00N 39°36' W 073°48'522.8 010 / 51035.027.0 4.0 1.7 4.0
2018-Feb-13 00:48N 39°39' W 073°53'411.9
2018-Feb-13 00:30N 39°42' W 073°53'611.9
2018-Feb-13 00:00N 39°48' W 073°53'611.8
2018-Feb-12 23:30N 39°54' W 073°52'2910.8
2018-Feb-12 20:49N 40°23' W 073°49'410.2
2018-Feb-12 20:28N 40°27' W 073°49'4 9.0
2018-Feb-12 20:00N 40°29' W 073°54'611.4
2018-Feb-12 19:30N 40°31' W 074°00'714.1
2018-Feb-12 19:00N 40°38' W 074°03'3 5.5
2018-Feb-12 18:31N 40°39' W 074°07'2 3.6
2018-Feb-12 18:00N 40°39' W 074°09'2 3.3
2018-Feb-12 17:30N 40°41' W 074°08'0 0.9
2018-Feb-12 17:00N 40°41' W 074°09'0 0.0
2018-Feb-12 16:27N 40°41' W 074°09'0 0.0
2018-Feb-12 15:57N 40°41' W 074°09'0 0.0
2018-Feb-12 15:15N 40°41' W 074°09'0 0.0
2018-Feb-12 14:57N 40°41' W 074°09'0 0.0
2018-Feb-12 14:24N 40°41' W 074°09'0 0.0
2018-Feb-12 14:00N 40°41' W 074°09'0 0.0
2018-Feb-12 13:30N 40°41' W 074°09'0 0.0
2018-Feb-12 12:57N 40°41' W 074°09'0 0.0
2018-Feb-12 12:30N 40°41' W 074°09'0 0.0
2018-Feb-12 12:00N 40°41' W 074°09'0 0.0
2018-Feb-12 11:30N 40°41' W 074°09'0 0.0
2018-Feb-12 11:00N 40°41' W 074°09'0 0.0
2018-Feb-12 10:27N 40°41' W 074°09'0 0.0
2018-Feb-12 10:00N 40°41' W 074°09'0 0.0
2018-Feb-12 09:24N 40°41' W 074°09'0 0.0
2018-Feb-12 09:00N 40°41' W 074°09'0 0.0
2018-Feb-12 08:30N 40°41' W 074°09'0 0.0
2018-Feb-12 08:00N 40°41' W 074°09'0 0.0
2018-Feb-12 07:30N 40°41' W 074°09'0 0.0
2018-Feb-12 07:00N 40°41' W 074°09'0 0.0
2018-Feb-12 06:30N 40°41' W 074°09'0 0.0
2018-Feb-12 06:00N 40°41' W 074°09'0 0.0
2018-Feb-12 05:30N 40°41' W 074°09'0 0.0
2018-Feb-12 05:00N 40°41' W 074°09'0 0.0
2018-Feb-12 04:30N 40°41' W 074°09'0 0.0
2018-Feb-12 04:00N 40°41' W 074°09'0 0.0
2018-Feb-12 03:30N 40°41' W 074°09'0 0.0
2018-Feb-12 03:00N 40°41' W 074°09'0 0.0
2018-Feb-12 02:30N 40°41' W 074°09'0 0.0
2018-Feb-12 01:57N 40°41' W 074°09'0 0.0
2018-Feb-12 01:30N 40°41' W 074°09'0 0.0
2018-Feb-12 01:00N 40°41' W 074°09'0 0.0
2018-Feb-12 00:30N 40°41' W 074°09'0 0.0
2018-Feb-12 00:00N 40°41' W 074°09'0 0.0
2018-Feb-11 23:30N 40°41' W 074°09'0 0.0
2018-Feb-11 23:00N 40°41' W 074°09'0 0.0
2018-Feb-11 22:30N 40°41' W 074°09'0 0.0
2018-Feb-11 22:00N 40°41' W 074°09'0 0.0
2018-Feb-11 21:30N 40°41' W 074°09'0 0.0
2018-Feb-11 21:00N 40°41' W 074°09'0 0.0
2018-Feb-11 20:30N 40°41' W 074°09'0 0.0
2018-Feb-11 20:00N 40°41' W 074°09'0 0.0
2018-Feb-11 19:30N 40°41' W 074°09'0 0.0
2018-Feb-11 19:00N 40°41' W 074°09'0 0.0
2018-Feb-11 18:30N 40°41' W 074°09'0 0.0
2018-Feb-11 18:00N 40°41' W 074°09'0 0.0
2018-Feb-11 17:30N 40°41' W 074°09'0 0.0
2018-Feb-11 17:00N 40°41' W 074°09'0 0.0
2018-Feb-11 16:30N 40°41' W 074°09'0 0.0
2018-Feb-11 16:00N 40°41' W 074°09'0 0.0
2018-Feb-11 15:27N 40°41' W 074°09'0 0.0
2018-Feb-11 14:57N 40°41' W 074°09'0 0.0
2018-Feb-11 14:30N 40°41' W 074°09'0 0.0
2018-Feb-11 14:00N 40°41' W 074°09'0 0.0
2018-Feb-11 13:30N 40°41' W 074°09'0 0.0
2018-Feb-11 12:57N 40°41' W 074°09'0 0.0
2018-Feb-11 12:30N 40°41' W 074°09'0 0.0
2018-Feb-11 12:00N 40°41' W 074°09'1 1.8
2018-Feb-11 11:30N 40°40' W 074°08'1 2.9
2018-Feb-11 11:00N 40°39' W 074°08'2 4.6
2018-Feb-11 10:30N 40°39' W 074°05'3 5.2
2018-Feb-11 10:00N 40°37' W 074°03'4 8.6
2018-Feb-11 09:30N 40°33' W 074°02'611.3
2018-Feb-11 09:00N 40°30' W 073°56'5 9.7
2018-Feb-11 08:30N 40°27' W 073°50'3 6.4
2018-Feb-11 07:59N 40°25' W 073°47'3 5.7
2018-Feb-11 07:29N 40°22' W 073°46'1 1.2
2018-Feb-11 06:59N 40°22' W 073°47'2 4.4
2018-Feb-11 06:30N 40°20' W 073°46'1914.1
2018-Feb-11 05:11N 40°01' W 073°43'737.6
2018-Feb-11 05:00N 39°54' W 073°42'219.7 200 / 271020.0 0.3 9.0 8.1 4.0
2018-Feb-11 04:55N 39°56' W 073°42'2021.0
2018-Feb-11 03:59N 39°36' W 073°41'6622.1
2018-Feb-11 01:00N 38°30' W 073°36'5413.5 180 / 201021.010.8 13.0 9.411.0
2018-Feb-10 21:00N 37°36' W 073°36'5413.5 190 / 201024.0 15.014.212.0
2018-Feb-10 17:00N 36°42' W 073°36'7919.7 250 / 131027.010.8 21.018.020.0
2018-Feb-10 13:00N 35°24' W 073°24'7819.5 180 / 181028.010.8 17.013.721.0
2018-Feb-10 09:00N 34°06' W 073°30'7218.0 140 / 151027.010.8 19.018.220.0
2018-Feb-10 05:00N 32°54' W 073°30'7218.0 090 / 151028.010.8 19.017.521.0
2018-Feb-10 01:00N 31°42' W 073°30'7826.1 080 / 201028.010.8 19.017.521.0
2018-Feb-09 22:00N 30°24' W 073°24'7815.6 050 / 221027.010.8 22.020.622.0
2018-Feb-09 17:00N 29°06' W 073°24'7819.5 050 / 291027.010.8 23.020.121.0
2018-Feb-09 13:00N 27°48' W 073°18'7218.0 030 / 201025.010.8 22.019.022.0
2018-Feb-09 09:00N 26°36' W 073°18'   040 / 161024.010.8 23.020.124.0
Track history (hours):
 
Tides and Currents Weather Stations Pressure Air Temp Water Temp Dewpoint Dewpoint Depression Visibility Wind Speed Wind Dir Waves Ship Positions

CMA CGM J. Adams

Last reported at 2018-Feb-19 03:56 UTC. Time now 2018-Feb-19 04:19 UTC.
Position N 36°53' W 076°21'.

Length 366 m; draft 12.7 m.

Type: Ship (hazmat cat D). MMSI: 232007935.

Date/timePositionNaut miles runAvg speedWind from/ knotsBaromVisibWave heightAir tempDewpointWater temp
2018-Feb-19 03:56N 36°53' W 076°21'0 0.0
2018-Feb-19 03:26N 36°53' W 076°21'0 0.0
2018-Feb-19 02:56N 36°53' W 076°21'0 0.0
2018-Feb-19 02:29N 36°53' W 076°21'0 0.0
2018-Feb-19 01:59N 36°53' W 076°21'0 0.0
2018-Feb-19 01:29N 36°53' W 076°21'0 0.0
2018-Feb-19 00:59N 36°53' W 076°21'0 0.0
2018-Feb-19 00:29N 36°53' W 076°21'0 0.0
2018-Feb-18 23:59N 36°53' W 076°21'0 0.5
2018-Feb-18 23:30N 36°53' W 076°21'2 4.5
2018-Feb-18 23:01N 36°55' W 076°20'4 8.1
2018-Feb-18 22:31N 36°59' W 076°20'611.4
2018-Feb-18 22:00N 36°60' W 076°12'715.0
2018-Feb-18 21:30N 36°58' W 076°04'611.1
2018-Feb-18 21:00N 36°56' W 075°57'4 8.5
2018-Feb-18 20:30N 36°53' W 075°53'4 9.0
2018-Feb-18 20:00N 36°51' W 075°48'4 7.9
2018-Feb-18 19:30N 36°49' W 075°44'3 0.1
2018-Feb-16 19:40N 36°50' W 075°40'  
2018-Feb-13 19:15N 36°50' W 075°41'3 7.7
2018-Feb-13 18:54N 36°49' W 075°39'2714.0
2018-Feb-13 17:00N 36°54' W 075°06'38 9.5 050 / 131039.010.8 6.0 1.5 9.0
2018-Feb-13 13:00N 37°12' W 074°24'4912.2 010 / 201038.027.0 4.0 4.011.0
2018-Feb-13 09:00N 38°00' W 074°12'4912.2 030 / 221037.010.8 3.0 0.6 7.0
2018-Feb-13 05:00N 38°48' W 074°00'4812.1 360 / 61036.010.8 3.0 0.6 4.0
2018-Feb-13 01:01N 39°36' W 073°53'4128.2
2018-Feb-13 01:00N 39°36' W 073°48'522.8 010 / 51035.027.0 4.0 1.7 4.0
2018-Feb-13 00:48N 39°39' W 073°53'411.9
2018-Feb-13 00:30N 39°42' W 073°53'611.9
2018-Feb-13 00:00N 39°48' W 073°53'611.8
2018-Feb-12 23:30N 39°54' W 073°52'2910.8
2018-Feb-12 20:49N 40°23' W 073°49'410.2
2018-Feb-12 20:28N 40°27' W 073°49'4 9.0
2018-Feb-12 20:00N 40°29' W 073°54'611.4
2018-Feb-12 19:30N 40°31' W 074°00'714.1
2018-Feb-12 19:00N 40°38' W 074°03'3 5.5
2018-Feb-12 18:31N 40°39' W 074°07'2 3.6
2018-Feb-12 18:00N 40°39' W 074°09'2 3.3
2018-Feb-12 17:30N 40°41' W 074°08'0 0.9
2018-Feb-12 17:00N 40°41' W 074°09'0 0.0
2018-Feb-12 16:27N 40°41' W 074°09'0 0.0
2018-Feb-12 15:57N 40°41' W 074°09'0 0.0
2018-Feb-12 15:15N 40°41' W 074°09'0 0.0
2018-Feb-12 14:57N 40°41' W 074°09'0 0.0
2018-Feb-12 14:24N 40°41' W 074°09'0 0.0
2018-Feb-12 14:00N 40°41' W 074°09'0 0.0
2018-Feb-12 13:30N 40°41' W 074°09'0 0.0
2018-Feb-12 12:57N 40°41' W 074°09'0 0.0
2018-Feb-12 12:30N 40°41' W 074°09'0 0.0
2018-Feb-12 12:00N 40°41' W 074°09'0 0.0
2018-Feb-12 11:30N 40°41' W 074°09'0 0.0
2018-Feb-12 11:00N 40°41' W 074°09'0 0.0
2018-Feb-12 10:27N 40°41' W 074°09'0 0.0
2018-Feb-12 10:00N 40°41' W 074°09'0 0.0
2018-Feb-12 09:24N 40°41' W 074°09'0 0.0
2018-Feb-12 09:00N 40°41' W 074°09'0 0.0
2018-Feb-12 08:30N 40°41' W 074°09'0 0.0
2018-Feb-12 08:00N 40°41' W 074°09'0 0.0
2018-Feb-12 07:30N 40°41' W 074°09'0 0.0
2018-Feb-12 07:00N 40°41' W 074°09'0 0.0
2018-Feb-12 06:30N 40°41' W 074°09'0 0.0
2018-Feb-12 06:00N 40°41' W 074°09'0 0.0
2018-Feb-12 05:30N 40°41' W 074°09'0 0.0
2018-Feb-12 05:00N 40°41' W 074°09'0 0.0
2018-Feb-12 04:30N 40°41' W 074°09'0 0.0
2018-Feb-12 04:00N 40°41' W 074°09'0 0.0
2018-Feb-12 03:30N 40°41' W 074°09'0 0.0
2018-Feb-12 03:00N 40°41' W 074°09'0 0.0
2018-Feb-12 02:30N 40°41' W 074°09'0 0.0
2018-Feb-12 01:57N 40°41' W 074°09'0 0.0
2018-Feb-12 01:30N 40°41' W 074°09'0 0.0
2018-Feb-12 01:00N 40°41' W 074°09'0 0.0
2018-Feb-12 00:30N 40°41' W 074°09'0 0.0
2018-Feb-12 00:00N 40°41' W 074°09'0 0.0
2018-Feb-11 23:30N 40°41' W 074°09'0 0.0
2018-Feb-11 23:00N 40°41' W 074°09'0 0.0
2018-Feb-11 22:30N 40°41' W 074°09'0 0.0
2018-Feb-11 22:00N 40°41' W 074°09'0 0.0
2018-Feb-11 21:30N 40°41' W 074°09'0 0.0
2018-Feb-11 21:00N 40°41' W 074°09'0 0.0
2018-Feb-11 20:30N 40°41' W 074°09'0 0.0
2018-Feb-11 20:00N 40°41' W 074°09'0 0.0
2018-Feb-11 19:30N 40°41' W 074°09'0 0.0
2018-Feb-11 19:00N 40°41' W 074°09'0 0.0
2018-Feb-11 18:30N 40°41' W 074°09'0 0.0
2018-Feb-11 18:00N 40°41' W 074°09'0 0.0
2018-Feb-11 17:30N 40°41' W 074°09'0 0.0
2018-Feb-11 17:00N 40°41' W 074°09'0 0.0
2018-Feb-11 16:30N 40°41' W 074°09'0 0.0
2018-Feb-11 16:00N 40°41' W 074°09'0 0.0
2018-Feb-11 15:27N 40°41' W 074°09'0 0.0
2018-Feb-11 14:57N 40°41' W 074°09'0 0.0
2018-Feb-11 14:30N 40°41' W 074°09'0 0.0
2018-Feb-11 14:00N 40°41' W 074°09'0 0.0
2018-Feb-11 13:30N 40°41' W 074°09'0 0.0
2018-Feb-11 12:57N 40°41' W 074°09'0 0.0
2018-Feb-11 12:30N 40°41' W 074°09'0 0.0
2018-Feb-11 12:00N 40°41' W 074°09'1 1.8
2018-Feb-11 11:30N 40°40' W 074°08'1 2.9
2018-Feb-11 11:00N 40°39' W 074°08'2 4.6
2018-Feb-11 10:30N 40°39' W 074°05'3 5.2
2018-Feb-11 10:00N 40°37' W 074°03'4 8.6
2018-Feb-11 09:30N 40°33' W 074°02'611.3
2018-Feb-11 09:00N 40°30' W 073°56'5 9.7
2018-Feb-11 08:30N 40°27' W 073°50'3 6.4
2018-Feb-11 07:59N 40°25' W 073°47'3 5.7
2018-Feb-11 07:29N 40°22' W 073°46'1 1.2
2018-Feb-11 06:59N 40°22' W 073°47'2 4.4
2018-Feb-11 06:30N 40°20' W 073°46'1914.1
2018-Feb-11 05:11N 40°01' W 073°43'737.6
2018-Feb-11 05:00N 39°54' W 073°42'219.7 200 / 271020.0 0.3 9.0 8.1 4.0
2018-Feb-11 04:55N 39°56' W 073°42'2021.0
2018-Feb-11 03:59N 39°36' W 073°41'6622.1
2018-Feb-11 01:00N 38°30' W 073°36'5413.5 180 / 201021.010.8 13.0 9.411.0
2018-Feb-10 21:00N 37°36' W 073°36'5413.5 190 / 201024.0 15.014.212.0
2018-Feb-10 17:00N 36°42' W 073°36'7919.7 250 / 131027.010.8 21.018.020.0
2018-Feb-10 13:00N 35°24' W 073°24'7819.5 180 / 181028.010.8 17.013.721.0
2018-Feb-10 09:00N 34°06' W 073°30'7218.0 140 / 151027.010.8 19.018.220.0
2018-Feb-10 05:00N 32°54' W 073°30'7218.0 090 / 151028.010.8 19.017.521.0
2018-Feb-10 01:00N 31°42' W 073°30'7826.1 080 / 201028.010.8 19.017.521.0
2018-Feb-09 22:00N 30°24' W 073°24'7815.6 050 / 221027.010.8 22.020.622.0
2018-Feb-09 17:00N 29°06' W 073°24'7819.5 050 / 291027.010.8 23.020.121.0
2018-Feb-09 13:00N 27°48' W 073°18'7218.0 030 / 201025.010.8 22.019.022.0
2018-Feb-09 09:00N 26°36' W 073°18'   040 / 161024.010.8 23.020.124.0

Dump ship's entire track history